sensor_id;sensor_type;location;lat;lon;timestamp;pressure;altitude;pressure_sealevel;temperature;humidity
11672;BME280;5892;43.412;24.612;2023-12-20T00:00:35;100232.09;;;2.55;100.00
11672;BME280;5892;43.412;24.612;2023-12-20T00:03:03;100225.81;;;2.49;100.00
11672;BME280;5892;43.412;24.612;2023-12-20T00:05:30;100242.16;;;2.65;100.00
11672;BME280;5892;43.412;24.612;2023-12-20T00:07:58;100242.13;;;2.60;100.00
11672;BME280;5892;43.412;24.612;2023-12-20T00:10:25;100237.53;;;2.60;100.00
11672;BME280;5892;43.412;24.612;2023-12-20T00:12:54;100241.91;;;2.66;100.00
11672;BME280;5892;43.412;24.612;2023-12-20T00:15:21;100242.16;;;2.65;100.00
11672;BME280;5892;43.412;24.612;2023-12-20T00:17:48;100235.69;;;2.66;100.00
11672;BME280;5892;43.412;24.612;2023-12-20T00:20:14;100229.69;;;2.64;100.00
11672;BME280;5892;43.412;24.612;2023-12-20T00:22:41;100174.59;;;2.33;100.00
11672;BME280;5892;43.412;24.612;2023-12-20T00:25:11;100227.75;;;2.54;100.00
11672;BME280;5892;43.412;24.612;2023-12-20T00:27:38;100199.81;;;2.43;100.00
11672;BME280;5892;43.412;24.612;2023-12-20T00:30:08;100235.56;;;2.50;100.00
11672;BME280;5892;43.412;24.612;2023-12-20T00:32:37;100233.91;;;2.44;100.00
11672;BME280;5892;43.412;24.612;2023-12-20T00:35:07;100111.34;;;1.65;100.00
11672;BME280;5892;43.412;24.612;2023-12-20T00:37:34;100135.00;;;1.85;100.00
11672;BME280;5892;43.412;24.612;2023-12-20T00:40:01;100207.47;;;2.20;100.00
11672;BME280;5892;43.412;24.612;2023-12-20T00:42:31;100188.38;;;1.99;100.00
11672;BME280;5892;43.412;24.612;2023-12-20T00:44:59;100065.13;;;1.30;100.00
11672;BME280;5892;43.412;24.612;2023-12-20T00:47:28;100145.09;;;1.94;100.00
11672;BME280;5892;43.412;24.612;2023-12-20T00:49:54;100201.63;;;2.33;100.00
11672;BME280;5892;43.412;24.612;2023-12-20T00:52:22;100040.69;;;1.14;100.00
11672;BME280;5892;43.412;24.612;2023-12-20T00:54:51;100207.59;;;2.35;100.00
11672;BME280;5892;43.412;24.612;2023-12-20T00:57:18;100201.66;;;2.38;100.00
11672;BME280;5892;43.412;24.612;2023-12-20T00:59:44;100200.31;;;2.35;100.00
11672;BME280;5892;43.412;24.612;2023-12-20T01:02:11;100181.53;;;2.19;100.00
11672;BME280;5892;43.412;24.612;2023-12-20T01:04:40;100119.44;;;1.65;100.00
11672;BME280;5892;43.412;24.612;2023-12-20T01:07:07;100219.41;;;2.24;100.00
11672;BME280;5892;43.412;24.612;2023-12-20T01:09:33;100180.13;;;2.16;100.00
11672;BME280;5892;43.412;24.612;2023-12-20T01:12:02;100136.69;;;1.91;100.00
11672;BME280;5892;43.412;24.612;2023-12-20T01:14:30;100177.94;;;2.13;100.00
11672;BME280;5892;43.412;24.612;2023-12-20T01:16:56;100164.41;;;2.08;100.00
11672;BME280;5892;43.412;24.612;2023-12-20T01:19:24;100155.47;;;2.07;100.00
11672;BME280;5892;43.412;24.612;2023-12-20T01:21:53;100168.50;;;2.16;100.00
11672;BME280;5892;43.412;24.612;2023-12-20T01:24:20;100157.16;;;2.13;100.00
11672;BME280;5892;43.412;24.612;2023-12-20T01:26:47;100154.47;;;2.19;100.00
11672;BME280;5892;43.412;24.612;2023-12-20T01:29:15;100140.63;;;2.10;100.00
11672;BME280;5892;43.412;24.612;2023-12-20T01:31:43;100152.00;;;2.12;100.00
11672;BME280;5892;43.412;24.612;2023-12-20T01:34:12;100097.75;;;1.87;100.00
11672;BME280;5892;43.412;24.612;2023-12-20T01:36:40;100123.78;;;1.98;100.00
11672;BME280;5892;43.412;24.612;2023-12-20T01:39:09;100145.28;;;2.15;100.00
11672;BME280;5892;43.412;24.612;2023-12-20T01:41:37;100125.25;;;2.16;100.00
11672;BME280;5892;43.412;24.612;2023-12-20T01:44:05;100143.63;;;2.13;100.00
11672;BME280;5892;43.412;24.612;2023-12-20T01:46:32;100113.22;;;1.96;100.00
11672;BME280;5892;43.412;24.612;2023-12-20T01:48:59;100107.06;;;2.06;100.00
11672;BME280;5892;43.412;24.612;2023-12-20T01:51:27;100094.38;;;2.06;100.00
11672;BME280;5892;43.412;24.612;2023-12-20T01:53:55;100115.47;;;2.09;100.00
11672;BME280;5892;43.412;24.612;2023-12-20T01:56:25;100109.81;;;2.11;100.00
11672;BME280;5892;43.412;24.612;2023-12-20T01:58:53;100101.03;;;1.94;100.00
11672;BME280;5892;43.412;24.612;2023-12-20T02:01:21;100093.50;;;1.96;100.00
11672;BME280;5892;43.412;24.612;2023-12-20T02:03:48;100098.13;;;2.00;100.00
11672;BME280;5892;43.412;24.612;2023-12-20T02:06:16;100070.44;;;1.83;100.00
11672;BME280;5892;43.412;24.612;2023-12-20T02:08:44;100077.78;;;1.88;100.00
11672;BME280;5892;43.412;24.612;2023-12-20T02:11:11;100079.72;;;1.97;100.00
11672;BME280;5892;43.412;24.612;2023-12-20T02:13:39;100065.38;;;1.92;100.00
11672;BME280;5892;43.412;24.612;2023-12-20T02:16:06;100077.56;;;1.99;100.00
11672;BME280;5892;43.412;24.612;2023-12-20T02:18:33;100074.31;;;1.97;100.00
11672;BME280;5892;43.412;24.612;2023-12-20T02:21:01;100067.59;;;2.05;100.00
11672;BME280;5892;43.412;24.612;2023-12-20T02:23:29;100070.31;;;2.05;100.00
11672;BME280;5892;43.412;24.612;2023-12-20T02:25:56;100065.41;;;1.97;100.00
11672;BME280;5892;43.412;24.612;2023-12-20T02:28:23;100042.88;;;1.81;100.00
11672;BME280;5892;43.412;24.612;2023-12-20T02:30:52;100055.06;;;1.89;100.00
11672;BME280;5892;43.412;24.612;2023-12-20T02:33:19;100049.31;;;1.75;100.00
11672;BME280;5892;43.412;24.612;2023-12-20T02:35:46;100056.53;;;1.69;100.00
11672;BME280;5892;43.412;24.612;2023-12-20T02:38:13;100047.34;;;1.65;100.00
11672;BME280;5892;43.412;24.612;2023-12-20T02:40:42;100056.88;;;1.78;100.00
11672;BME280;5892;43.412;24.612;2023-12-20T02:43:09;100047.59;;;1.64;100.00
11672;BME280;5892;43.412;24.612;2023-12-20T02:45:35;100048.41;;;1.64;100.00
11672;BME280;5892;43.412;24.612;2023-12-20T02:48:04;100041.66;;;1.62;100.00
11672;BME280;5892;43.412;24.612;2023-12-20T02:50:31;100031.91;;;1.61;100.00
11672;BME280;5892;43.412;24.612;2023-12-20T02:52:58;100041.09;;;1.60;100.00
11672;BME280;5892;43.412;24.612;2023-12-20T02:55:30;100043.78;;;1.60;100.00
11672;BME280;5892;43.412;24.612;2023-12-20T02:57:59;100045.06;;;1.52;100.00
11672;BME280;5892;43.412;24.612;2023-12-20T03:00:26;100041.03;;;1.55;100.00
11672;BME280;5892;43.412;24.612;2023-12-20T03:02:53;99935.63;;;0.76;100.00
11672;BME280;5892;43.412;24.612;2023-12-20T03:05:21;100023.22;;;1.54;100.00
11672;BME280;5892;43.412;24.612;2023-12-20T03:07:47;100023.47;;;1.52;100.00
11672;BME280;5892;43.412;24.612;2023-12-20T03:10:15;100023.13;;;1.44;100.00
11672;BME280;5892;43.412;24.612;2023-12-20T03:12:41;100006.31;;;1.37;100.00
11672;BME280;5892;43.412;24.612;2023-12-20T03:15:11;100000.38;;;1.35;100.00
11672;BME280;5892;43.412;24.612;2023-12-20T03:17:38;100026.41;;;1.46;100.00
11672;BME280;5892;43.412;24.612;2023-12-20T03:20:08;100016.41;;;1.46;100.00
11672;BME280;5892;43.412;24.612;2023-12-20T03:22:35;100012.91;;;1.46;100.00
11672;BME280;5892;43.412;24.612;2023-12-20T03:25:03;99987.88;;;1.23;100.00
11672;BME280;5892;43.412;24.612;2023-12-20T03:27:30;100010.84;;;1.31;100.00
11672;BME280;5892;43.412;24.612;2023-12-20T03:29:56;99997.72;;;1.40;100.00
11672;BME280;5892;43.412;24.612;2023-12-20T03:32:25;99977.63;;;1.25;100.00
11672;BME280;5892;43.412;24.612;2023-12-20T03:34:52;99995.28;;;1.38;100.00
11672;BME280;5892;43.412;24.612;2023-12-20T03:37:18;99988.47;;;1.31;100.00
11672;BME280;5892;43.412;24.612;2023-12-20T03:39:46;99984.09;;;1.24;100.00
11672;BME280;5892;43.412;24.612;2023-12-20T03:42:12;99935.78;;;0.91;100.00
11672;BME280;5892;43.412;24.612;2023-12-20T03:44:39;99988.72;;;1.29;100.00
11672;BME280;5892;43.412;24.612;2023-12-20T03:47:06;99985.25;;;1.34;100.00
11672;BME280;5892;43.412;24.612;2023-12-20T03:49:35;99986.28;;;1.27;100.00
11672;BME280;5892;43.412;24.612;2023-12-20T03:52:03;99981.91;;;1.21;100.00
11672;BME280;5892;43.412;24.612;2023-12-20T03:54:30;99987.63;;;1.25;100.00
11672;BME280;5892;43.412;24.612;2023-12-20T03:56:57;99981.41;;;1.24;100.00
11672;BME280;5892;43.412;24.612;2023-12-20T03:59:24;99970.84;;;1.23;100.00
11672;BME280;5892;43.412;24.612;2023-12-20T04:01:51;99967.59;;;1.21;100.00
11672;BME280;5892;43.412;24.612;2023-12-20T04:04:18;99971.06;;;1.16;100.00
11672;BME280;5892;43.412;24.612;2023-12-20T04:06:47;99968.41;;;1.21;100.00
11672;BME280;5892;43.412;24.612;2023-12-20T04:09:14;99963.00;;;1.21;100.00
11672;BME280;5892;43.412;24.612;2023-12-20T04:11:41;99954.91;;;1.21;100.00
11672;BME280;5892;43.412;24.612;2023-12-20T04:14:08;99960.34;;;1.26;100.00
11672;BME280;5892;43.412;24.612;2023-12-20T04:16:37;99951.63;;;1.14;100.00
11672;BME280;5892;43.412;24.612;2023-12-20T04:19:05;99953.03;;;1.22;100.00
11672;BME280;5892;43.412;24.612;2023-12-20T04:21:32;99937.28;;;1.09;100.00
11672;BME280;5892;43.412;24.612;2023-12-20T04:24:01;99949.78;;;1.20;100.00
11672;BME280;5892;43.412;24.612;2023-12-20T04:26:28;99940.47;;;1.06;100.00
11672;BME280;5892;43.412;24.612;2023-12-20T04:28:55;99940.28;;;1.12;100.00
11672;BME280;5892;43.412;24.612;2023-12-20T04:31:22;99938.63;;;1.11;100.00
11672;BME280;5892;43.412;24.612;2023-12-20T04:33:49;99912.06;;;0.93;100.00
11672;BME280;5892;43.412;24.612;2023-12-20T04:36:16;99933.19;;;1.06;100.00
11672;BME280;5892;43.412;24.612;2023-12-20T04:38:43;99936.16;;;1.05;100.00
11672;BME280;5892;43.412;24.612;2023-12-20T04:41:11;99931.34;;;1.12;100.00
11672;BME280;5892;43.412;24.612;2023-12-20T04:43:41;99917.75;;;0.97;100.00
11672;BME280;5892;43.412;24.612;2023-12-20T04:46:08;99935.09;;;1.06;100.00
11672;BME280;5892;43.412;24.612;2023-12-20T04:48:38;99933.97;;;1.02;100.00
11672;BME280;5892;43.412;24.612;2023-12-20T04:51:05;99921.63;;;0.79;100.00
11672;BME280;5892;43.412;24.612;2023-12-20T04:53:35;99919.53;;;0.86;100.00
11672;BME280;5892;43.412;24.612;2023-12-20T04:56:02;99925.94;;;0.80;100.00
11672;BME280;5892;43.412;24.612;2023-12-20T04:58:31;99885.88;;;0.62;100.00
11672;BME280;5892;43.412;24.612;2023-12-20T05:00:58;99915.69;;;0.77;100.00
11672;BME280;5892;43.412;24.612;2023-12-20T05:03:25;99892.97;;;0.68;100.00
11672;BME280;5892;43.412;24.612;2023-12-20T05:05:52;99920.09;;;0.88;100.00
11672;BME280;5892;43.412;24.612;2023-12-20T05:08:19;99920.09;;;0.88;100.00
11672;BME280;5892;43.412;24.612;2023-12-20T05:10:46;99905.16;;;0.75;100.00
11672;BME280;5892;43.412;24.612;2023-12-20T05:13:13;99913.56;;;0.84;100.00
11672;BME280;5892;43.412;24.612;2023-12-20T05:15:42;99920.59;;;0.85;100.00
11672;BME280;5892;43.412;24.612;2023-12-20T05:18:11;99918.97;;;0.84;100.00
11672;BME280;5892;43.412;24.612;2023-12-20T05:20:38;99879.63;;;0.56;100.00
11672;BME280;5892;43.412;24.612;2023-12-20T05:23:05;99921.94;;;0.82;100.00
11672;BME280;5892;43.412;24.612;2023-12-20T05:25:35;99912.22;;;0.81;100.00
11672;BME280;5892;43.412;24.612;2023-12-20T05:28:02;99903.31;;;0.81;100.00
11672;BME280;5892;43.412;24.612;2023-12-20T05:30:29;99910.88;;;0.84;100.00
11672;BME280;5892;43.412;24.612;2023-12-20T05:32:58;99888.63;;;0.67;100.00
11672;BME280;5892;43.412;24.612;2023-12-20T05:35:25;99903.31;;;0.81;100.00
11672;BME280;5892;43.412;24.612;2023-12-20T05:37:53;99861.31;;;0.58;100.00
11672;BME280;5892;43.412;24.612;2023-12-20T05:40:20;99922.97;;;0.76;100.00
11672;BME280;5892;43.412;24.612;2023-12-20T05:42:47;99766.50;;;-0.19;100.00
11672;BME280;5892;43.412;24.612;2023-12-20T05:45:14;99891.66;;;0.75;100.00
11672;BME280;5892;43.412;24.612;2023-12-20T05:47:43;99709.25;;;-0.36;100.00
11672;BME280;5892;43.412;24.612;2023-12-20T05:50:12;99887.16;;;0.86;100.00
11672;BME280;5892;43.412;24.612;2023-12-20T05:52:39;99776.28;;;-0.13;100.00
11672;BME280;5892;43.412;24.612;2023-12-20T05:55:06;99902.84;;;0.89;100.00
11672;BME280;5892;43.412;24.612;2023-12-20T05:57:35;99825.88;;;0.45;100.00
11672;BME280;5892;43.412;24.612;2023-12-20T06:00:02;99867.47;;;0.85;100.00
11672;BME280;5892;43.412;24.612;2023-12-20T06:02:30;99830.94;;;0.68;100.00
11672;BME280;5892;43.412;24.612;2023-12-20T06:04:56;99858.00;;;0.78;100.00
11672;BME280;5892;43.412;24.612;2023-12-20T06:07:26;99761.25;;;0.55;100.00
11672;BME280;5892;43.412;24.612;2023-12-20T06:09:53;99725.13;;;0.51;100.00
11672;BME280;5892;43.412;24.612;2023-12-20T06:12:20;99879.06;;;1.60;100.00
11672;BME280;5892;43.412;24.612;2023-12-20T06:14:47;99839.84;;;1.52;100.00
11672;BME280;5892;43.412;24.612;2023-12-20T06:17:14;99781.25;;;1.01;100.00
11672;BME280;5892;43.412;24.612;2023-12-20T06:19:41;99886.09;;;1.66;100.00
11672;BME280;5892;43.412;24.612;2023-12-20T06:22:11;99873.94;;;1.63;100.00
11672;BME280;5892;43.412;24.612;2023-12-20T06:24:40;99879.59;;;1.57;100.00
11672;BME280;5892;43.412;24.612;2023-12-20T06:27:08;99864.47;;;1.61;100.00
11672;BME280;5892;43.412;24.612;2023-12-20T06:29:35;99825.50;;;1.47;100.00
11672;BME280;5892;43.412;24.612;2023-12-20T06:32:03;99865.09;;;1.78;100.00
11672;BME280;5892;43.412;24.612;2023-12-20T06:34:30;99860.44;;;1.68;100.00
11672;BME280;5892;43.412;24.612;2023-12-20T06:36:57;99857.56;;;1.90;100.00
11672;BME280;5892;43.412;24.612;2023-12-20T06:39:24;99858.66;;;1.94;100.00
11672;BME280;5892;43.412;24.612;2023-12-20T06:41:55;99866.81;;;2.04;100.00
11672;BME280;5892;43.412;24.612;2023-12-20T06:44:22;99873.88;;;2.16;100.00
11672;BME280;5892;43.412;24.612;2023-12-20T06:46:49;99866.88;;;2.15;100.00
11672;BME280;5892;43.412;24.612;2023-12-20T06:49:16;99854.94;;;2.05;100.00
11672;BME280;5892;43.412;24.612;2023-12-20T06:51:42;99837.25;;;1.73;100.00
11672;BME280;5892;43.412;24.612;2023-12-20T06:54:09;99869.84;;;2.23;100.00
11672;BME280;5892;43.412;24.612;2023-12-20T06:56:36;99855.56;;;2.43;100.00
11672;BME280;5892;43.412;24.612;2023-12-20T06:59:05;99846.94;;;2.51;100.00
11672;BME280;5892;43.412;24.612;2023-12-20T07:01:33;99839.91;;;2.55;100.00
11672;BME280;5892;43.412;24.612;2023-12-20T07:03:59;99841.25;;;2.68;100.00
11672;BME280;5892;43.412;24.612;2023-12-20T07:06:26;99827.72;;;2.63;100.00
11672;BME280;5892;43.412;24.612;2023-12-20T07:08:54;99844.50;;;2.80;100.00
11672;BME280;5892;43.412;24.612;2023-12-20T07:11:22;99825.31;;;2.61;100.00
11672;BME280;5892;43.412;24.612;2023-12-20T07:13:49;99847.22;;;2.85;100.00
11672;BME280;5892;43.412;24.612;2023-12-20T07:16:32;99853.97;;;2.97;100.00
11672;BME280;5892;43.412;24.612;2023-12-20T07:19:00;99854.78;;;3.08;100.00
11672;BME280;5892;43.412;24.612;2023-12-20T07:21:27;99831.22;;;2.98;100.00
11672;BME280;5892;43.412;24.612;2023-12-20T07:23:54;99855.00;;;3.32;100.00
11672;BME280;5892;43.412;24.612;2023-12-20T07:26:20;99858.50;;;3.42;100.00
11672;BME280;5892;43.412;24.612;2023-12-20T07:28:48;99838.47;;;3.44;100.00
11672;BME280;5892;43.412;24.612;2023-12-20T07:31:15;99860.06;;;3.74;100.00
11672;BME280;5892;43.412;24.612;2023-12-20T07:33:44;99858.06;;;3.95;100.00
11672;BME280;5892;43.412;24.612;2023-12-20T07:36:12;99828.81;;;3.92;100.00
11672;BME280;5892;43.412;24.612;2023-12-20T07:38:38;99845.75;;;4.22;100.00
11672;BME280;5892;43.412;24.612;2023-12-20T07:41:09;99838.06;;;4.35;100.00
11672;BME280;5892;43.412;24.612;2023-12-20T07:43:36;99846.97;;;4.40;100.00
11672;BME280;5892;43.412;24.612;2023-12-20T07:46:06;99847.72;;;4.51;100.00
11672;BME280;5892;43.412;24.612;2023-12-20T07:48:33;99839.94;;;4.78;100.00
11672;BME280;5892;43.412;24.612;2023-12-20T07:51:02;99839.81;;;4.93;100.00
11672;BME280;5892;43.412;24.612;2023-12-20T07:53:31;99837.75;;;5.09;100.00
11672;BME280;5892;43.412;24.612;2023-12-20T07:55:58;99822.75;;;5.17;100.00
11672;BME280;5892;43.412;24.612;2023-12-20T07:58:25;99839.28;;;5.49;100.00
11672;BME280;5892;43.412;24.612;2023-12-20T08:00:52;99791.56;;;5.38;100.00
11672;BME280;5892;43.412;24.612;2023-12-20T08:03:20;99804.47;;;5.75;100.00
11672;BME280;5892;43.412;24.612;2023-12-20T08:05:46;99826.34;;;6.07;100.00
11672;BME280;5892;43.412;24.612;2023-12-20T08:08:15;99823.59;;;6.31;100.00
11672;BME280;5892;43.412;24.612;2023-12-20T08:10:42;99823.31;;;6.32;100.00
11672;BME280;5892;43.412;24.612;2023-12-20T08:13:10;99816.81;;;6.47;100.00
11672;BME280;5892;43.412;24.612;2023-12-20T08:15:37;99801.78;;;6.50;100.00
11672;BME280;5892;43.412;24.612;2023-12-20T08:18:04;99811.59;;;6.51;100.00
11672;BME280;5892;43.412;24.612;2023-12-20T08:20:31;99799.97;;;6.45;100.00
11672;BME280;5892;43.412;24.612;2023-12-20T08:22:58;99774.59;;;6.31;100.00
11672;BME280;5892;43.412;24.612;2023-12-20T08:25:27;99781.66;;;6.51;100.00
11672;BME280;5892;43.412;24.612;2023-12-20T08:27:54;99783.19;;;6.57;100.00
11672;BME280;5892;43.412;24.612;2023-12-20T08:30:21;99782.13;;;6.71;100.00
11672;BME280;5892;43.412;24.612;2023-12-20T08:32:47;99784.28;;;6.88;100.00
11672;BME280;5892;43.412;24.612;2023-12-20T08:35:14;99752.91;;;6.77;100.00
11672;BME280;5892;43.412;24.612;2023-12-20T08:37:41;99775.38;;;7.01;100.00
11672;BME280;5892;43.412;24.612;2023-12-20T08:40:09;99776.59;;;7.22;100.00
11672;BME280;5892;43.412;24.612;2023-12-20T08:42:37;99768.63;;;7.40;100.00
11672;BME280;5892;43.412;24.612;2023-12-20T08:45:05;99759.97;;;7.38;100.00
11672;BME280;5892;43.412;24.612;2023-12-20T08:47:34;99733.78;;;7.09;100.00
11672;BME280;5892;43.412;24.612;2023-12-20T08:50:01;99736.03;;;7.21;100.00
11672;BME280;5892;43.412;24.612;2023-12-20T08:52:29;99737.34;;;7.51;100.00
11672;BME280;5892;43.412;24.612;2023-12-20T08:54:55;99749.84;;;7.65;100.00
11672;BME280;5892;43.412;24.612;2023-12-20T08:57:23;99734.59;;;7.64;100.00
11672;BME280;5892;43.412;24.612;2023-12-20T08:59:52;99677.97;;;7.34;100.00
11672;BME280;5892;43.412;24.612;2023-12-20T09:02:19;99730.56;;;7.62;100.00
11672;BME280;5892;43.412;24.612;2023-12-20T09:04:46;99713.31;;;7.53;100.00
11672;BME280;5892;43.412;24.612;2023-12-20T09:07:22;99697.75;;;7.53;100.00
11672;BME280;5892;43.412;24.612;2023-12-20T09:09:49;99691.88;;;7.60;100.00
11672;BME280;5892;43.412;24.612;2023-12-20T09:12:17;99690.53;;;7.71;100.00
11672;BME280;5892;43.412;24.612;2023-12-20T09:14:45;99692.91;;;8.00;100.00
11672;BME280;5892;43.412;24.612;2023-12-20T09:17:13;99672.69;;;8.23;100.00
11672;BME280;5892;43.412;24.612;2023-12-20T09:19:42;99688.03;;;8.55;100.00
11672;BME280;5892;43.412;24.612;2023-12-20T09:22:09;99675.56;;;8.63;100.00
11672;BME280;5892;43.412;24.612;2023-12-20T09:24:39;99661.81;;;8.76;100.00
11672;BME280;5892;43.412;24.612;2023-12-20T09:27:06;99656.75;;;9.01;100.00
11672;BME280;5892;43.412;24.612;2023-12-20T09:29:34;99661.34;;;9.22;100.00
11672;BME280;5892;43.412;24.612;2023-12-20T09:32:01;99676.22;;;9.47;100.00
11672;BME280;5892;43.412;24.612;2023-12-20T09:34:29;99643.22;;;9.44;100.00
11672;BME280;5892;43.412;24.612;2023-12-20T09:36:56;99638.28;;;9.63;99.33
11672;BME280;5892;43.412;24.612;2023-12-20T09:39:23;99659.22;;;9.93;98.20
11672;BME280;5892;43.412;24.612;2023-12-20T09:42:00;99646.31;;;10.11;97.04
11672;BME280;5892;43.412;24.612;2023-12-20T09:44:27;99654.06;;;10.35;94.54
11672;BME280;5892;43.412;24.612;2023-12-20T09:46:55;99642.44;;;10.46;93.99
11672;BME280;5892;43.412;24.612;2023-12-20T09:49:25;99613.50;;;10.19;93.79
11672;BME280;5892;43.412;24.612;2023-12-20T09:51:55;99635.34;;;10.45;93.85
11672;BME280;5892;43.412;24.612;2023-12-20T09:54:23;99634.72;;;10.31;95.34
11672;BME280;5892;43.412;24.612;2023-12-20T09:56:50;99659.06;;;10.24;96.78
11672;BME280;5892;43.412;24.612;2023-12-20T09:59:17;99625.06;;;10.08;97.70
11672;BME280;5892;43.412;24.612;2023-12-20T10:01:44;99617.50;;;9.96;96.86
11672;BME280;5892;43.412;24.612;2023-12-20T10:04:13;99613.16;;;10.04;97.69
11672;BME280;5892;43.412;24.612;2023-12-20T10:06:40;99601.56;;;9.90;98.85
11672;BME280;5892;43.412;24.612;2023-12-20T10:09:11;99614.00;;;9.78;100.00
11672;BME280;5892;43.412;24.612;2023-12-20T10:11:39;99598.03;;;9.63;100.00
11672;BME280;5892;43.412;24.612;2023-12-20T10:14:06;99595.91;;;9.26;100.00
11672;BME280;5892;43.412;24.612;2023-12-20T10:16:34;99556.50;;;9.10;100.00
11672;BME280;5892;43.412;24.612;2023-12-20T10:19:01;99567.44;;;9.27;100.00
11672;BME280;5892;43.412;24.612;2023-12-20T10:21:28;99538.81;;;9.16;100.00
11672;BME280;5892;43.412;24.612;2023-12-20T10:23:55;99537.50;;;9.13;100.00
11672;BME280;5892;43.412;24.612;2023-12-20T10:26:24;99562.31;;;9.51;100.00
11672;BME280;5892;43.412;24.612;2023-12-20T10:28:53;99559.09;;;9.49;100.00
11672;BME280;5892;43.412;24.612;2023-12-20T10:31:27;99543.81;;;9.40;100.00
11672;BME280;5892;43.412;24.612;2023-12-20T10:33:56;99546.72;;;9.77;100.00
11672;BME280;5892;43.412;24.612;2023-12-20T10:36:25;99543.16;;;9.94;100.00
11672;BME280;5892;43.412;24.612;2023-12-20T10:38:52;99538.91;;;10.23;100.00
11672;BME280;5892;43.412;24.612;2023-12-20T10:41:29;99533.16;;;10.53;100.00
11672;BME280;5892;43.412;24.612;2023-12-20T10:44:00;99490.25;;;10.28;100.00
11672;BME280;5892;43.412;24.612;2023-12-20T10:46:28;99528.34;;;10.50;98.94
11672;BME280;5892;43.412;24.612;2023-12-20T10:48:56;99526.00;;;10.70;99.26
11672;BME280;5892;43.412;24.612;2023-12-20T10:51:23;99513.53;;;10.51;99.16
11672;BME280;5892;43.412;24.612;2023-12-20T10:53:52;99525.44;;;10.55;99.38
11672;BME280;5892;43.412;24.612;2023-12-20T10:56:20;99515.59;;;10.54;100.00
11672;BME280;5892;43.412;24.612;2023-12-20T10:58:50;99517.03;;;10.60;100.00
11672;BME280;5892;43.412;24.612;2023-12-20T11:01:18;99512.09;;;10.75;100.00
11672;BME280;5892;43.412;24.612;2023-12-20T11:03:49;99506.81;;;10.70;100.00
11672;BME280;5892;43.412;24.612;2023-12-20T11:06:26;99499.16;;;10.84;100.00
11672;BME280;5892;43.412;24.612;2023-12-20T11:09:02;99469.75;;;10.72;98.98
11672;BME280;5892;43.412;24.612;2023-12-20T11:11:39;99473.22;;;10.81;98.67
11672;BME280;5892;43.412;24.612;2023-12-20T11:14:16;99487.16;;;10.97;98.23
11672;BME280;5892;43.412;24.612;2023-12-20T11:16:45;99493.97;;;10.91;97.95
11672;BME280;5892;43.412;24.612;2023-12-20T11:19:12;99491.59;;;10.81;99.04
11672;BME280;5892;43.412;24.612;2023-12-20T11:21:40;99485.03;;;10.73;98.54
11672;BME280;5892;43.412;24.612;2023-12-20T11:24:07;99494.69;;;11.00;98.36
11672;BME280;5892;43.412;24.612;2023-12-20T11:26:34;99468.50;;;11.11;97.76
11672;BME280;5892;43.412;24.612;2023-12-20T11:32:03;99495.19;;;11.43;93.49
11672;BME280;5892;43.412;24.612;2023-12-20T11:34:33;99500.38;;;11.57;92.99
11672;BME280;5892;43.412;24.612;2023-12-20T11:37:03;99496.50;;;11.58;90.91
11672;BME280;5892;43.412;24.612;2023-12-20T11:39:30;99475.56;;;11.54;90.96
11672;BME280;5892;43.412;24.612;2023-12-20T11:42:04;99479.06;;;11.42;89.98
11672;BME280;5892;43.412;24.612;2023-12-20T11:44:31;99450.72;;;11.17;90.46
11672;BME280;5892;43.412;24.612;2023-12-20T11:46:59;99467.06;;;11.46;91.02
11672;BME280;5892;43.412;24.612;2023-12-20T11:49:27;99453.44;;;11.38;90.88
11672;BME280;5892;43.412;24.612;2023-12-20T11:51:57;99461.56;;;11.46;88.14
11672;BME280;5892;43.412;24.612;2023-12-20T11:54:25;99443.41;;;11.21;87.74
11672;BME280;5892;43.412;24.612;2023-12-20T11:56:52;99438.63;;;11.18;88.11
11672;BME280;5892;43.412;24.612;2023-12-20T11:59:19;99452.00;;;11.20;88.77
11672;BME280;5892;43.412;24.612;2023-12-20T12:01:50;99442.78;;;11.36;87.64
11672;BME280;5892;43.412;24.612;2023-12-20T12:04:17;99433.94;;;11.19;87.94
11672;BME280;5892;43.412;24.612;2023-12-20T12:06:46;99434.31;;;11.29;88.47
11672;BME280;5892;43.412;24.612;2023-12-20T12:09:13;99432.59;;;11.25;88.23
11672;BME280;5892;43.412;24.612;2023-12-20T12:11:41;99408.06;;;11.08;88.40
11672;BME280;5892;43.412;24.612;2023-12-20T12:14:08;99424.00;;;11.26;88.85
11672;BME280;5892;43.412;24.612;2023-12-20T12:16:34;99416.25;;;11.28;87.82
11672;BME280;5892;43.412;24.612;2023-12-20T12:19:01;99415.34;;;11.24;88.19
11672;BME280;5892;43.412;24.612;2023-12-20T12:21:29;99409.84;;;11.24;88.67
11672;BME280;5892;43.412;24.612;2023-12-20T12:24:07;99414.66;;;11.27;88.52
11672;BME280;5892;43.412;24.612;2023-12-20T12:26:35;99393.34;;;11.12;88.66
11672;BME280;5892;43.412;24.612;2023-12-20T12:29:03;99412.13;;;11.22;89.15
11672;BME280;5892;43.412;24.612;2023-12-20T12:31:30;99402.03;;;11.14;89.04
11672;BME280;5892;43.412;24.612;2023-12-20T12:33:57;99387.38;;;11.10;89.14
11672;BME280;5892;43.412;24.612;2023-12-20T12:36:24;99388.59;;;11.00;88.75
11672;BME280;5892;43.412;24.612;2023-12-20T12:38:51;99389.53;;;11.04;88.62
11672;BME280;5892;43.412;24.612;2023-12-20T12:41:19;99378.22;;;11.06;88.89
11672;BME280;5892;43.412;24.612;2023-12-20T12:43:47;99378.94;;;11.15;88.47
11672;BME280;5892;43.412;24.612;2023-12-20T12:46:14;99372.91;;;11.22;87.73
11672;BME280;5892;43.412;24.612;2023-12-20T12:48:41;99372.25;;;11.25;87.80
11672;BME280;5892;43.412;24.612;2023-12-20T12:51:07;99373.72;;;11.22;83.12
11672;BME280;5892;43.412;24.612;2023-12-20T12:53:38;99361.72;;;11.15;83.38
11672;BME280;5892;43.412;24.612;2023-12-20T12:56:05;99360.91;;;11.14;82.94
11672;BME280;5892;43.412;24.612;2023-12-20T12:58:34;99356.34;;;11.18;83.18
11672;BME280;5892;43.412;24.612;2023-12-20T13:01:01;99339.84;;;11.06;83.47
11672;BME280;5892;43.412;24.612;2023-12-20T13:03:29;99345.00;;;11.08;84.28